createdAt,value
2023-02-15T00:00:38.322Z,32.90
2023-02-15T00:08:22.656Z,36.20
2023-02-15T00:12:11.673Z,40.90
2023-02-15T00:16:00.960Z,40.30
2023-02-15T00:31:45.285Z,43.70
2023-02-15T00:35:34.153Z,42.20
2023-02-15T00:39:16.378Z,43.30
2023-02-15T00:43:17.353Z,42.10
2023-02-15T00:47:07.810Z,51.90
2023-02-15T00:50:56.678Z,52.30
2023-02-15T00:54:45.622Z,44.80
2023-02-15T00:58:35.037Z,46.50
2023-02-15T01:02:23.678Z,46.00
2023-02-15T01:06:12.675Z,51.40
2023-02-15T01:10:01.406Z,53.10
2023-02-15T01:13:49.244Z,53.60
2023-02-15T01:17:38.449Z,48.20
2023-02-15T01:33:34.794Z,54.40
2023-02-15T01:37:22.468Z,47.30
2023-02-15T01:49:15.046Z,41.20
2023-02-15T01:53:03.960Z,38.90
2023-02-15T01:56:52.884Z,44.40
2023-02-15T02:00:42.048Z,40.90
2023-02-15T02:04:46.676Z,36.30
2023-02-15T02:20:40.147Z,42.50
2023-02-15T02:24:29.268Z,42.70
2023-02-15T02:28:38.361Z,42.10
2023-02-15T02:48:27.742Z,44.20
2023-02-15T02:52:16.675Z,39.20
2023-02-15T02:56:05.772Z,35.70
2023-02-15T02:59:55.985Z,36.30
2023-02-15T03:08:18.100Z,36.10
2023-02-15T03:12:06.715Z,33.20
2023-02-15T03:15:54.142Z,34.40
2023-02-15T03:28:07.023Z,35.90
2023-02-15T03:31:56.269Z,34.00
2023-02-15T03:35:46.077Z,33.30
2023-02-15T03:39:47.125Z,35.30
2023-02-15T03:43:42.223Z,36.00
2023-02-15T03:47:40.472Z,31.20
2023-02-15T03:51:28.605Z,36.40
2023-02-15T04:07:04.402Z,39.60
2023-02-15T04:10:52.598Z,43.90
2023-02-15T04:14:40.115Z,42.60
2023-02-15T04:18:29.108Z,39.20
2023-02-15T04:22:45.546Z,37.90
2023-02-15T04:26:32.906Z,33.00
2023-02-15T04:30:22.567Z,32.80
2023-02-15T04:34:04.342Z,30.20
2023-02-15T04:37:53.491Z,31.50
2023-02-15T04:41:42.517Z,30.40
2023-02-15T04:45:31.890Z,30.80
2023-02-15T04:49:20.911Z,30.60
2023-02-15T04:53:09.934Z,30.70
2023-02-15T04:56:58.962Z,29.50
2023-02-15T05:00:48.043Z,29.60
2023-02-15T05:04:38.037Z,32.10
2023-02-15T05:08:26.818Z,33.50
2023-02-15T05:12:15.969Z,43.90
2023-02-15T05:16:06.113Z,46.40
2023-02-15T05:19:54.125Z,44.10
2023-02-15T05:23:45.262Z,40.60
2023-02-15T05:27:34.139Z,53.20
2023-02-15T05:31:23.844Z,49.40
2023-02-15T05:35:14.396Z,44.40
2023-02-15T05:38:39.727Z,42.90
2023-02-15T05:42:11.959Z,40.40
2023-02-15T05:45:08.042Z,45.80
2023-02-15T05:48:13.375Z,41.20
2023-02-15T05:51:46.182Z,40.00
2023-02-15T05:54:36.563Z,39.10
2023-02-15T05:57:58.600Z,37.00
2023-02-15T06:01:44.383Z,69.20
2023-02-15T06:05:31.170Z,118.60
2023-02-15T06:08:39.756Z,98.90
2023-02-15T06:12:04.775Z,91.70
2023-02-15T06:15:38.828Z,85.60
2023-02-15T06:18:32.939Z,78.30
2023-02-15T06:21:57.100Z,72.30
2023-02-15T06:25:05.888Z,64.40
2023-02-15T06:27:36.852Z,61.40
2023-02-15T06:31:26.052Z,58.70
2023-02-15T06:34:38.259Z,57.10
2023-02-15T06:37:49.126Z,56.90
2023-02-15T06:40:21.998Z,57.40
2023-02-15T06:43:11.718Z,54.50
2023-02-15T06:45:43.418Z,54.20
2023-02-15T06:48:20.857Z,55.60
2023-02-15T06:51:41.203Z,58.50
2023-02-15T06:55:19.111Z,65.60
2023-02-15T06:58:01.281Z,64.20
2023-02-15T07:01:16.142Z,74.80
2023-02-15T07:04:20.183Z,65.90
2023-02-15T07:07:31.796Z,69.00
2023-02-15T07:10:31.423Z,67.60
2023-02-15T07:14:05.580Z,75.70
2023-02-15T07:17:36.537Z,79.10
2023-02-15T07:21:22.900Z,74.10
2023-02-15T07:24:23.770Z,75.10
2023-02-15T07:27:32.813Z,78.00
2023-02-15T07:30:41.634Z,81.60
2023-02-15T07:34:15.051Z,71.40
2023-02-15T07:37:01.697Z,62.80
2023-02-15T07:39:52.561Z,66.00
2023-02-15T07:43:04.511Z,66.50
2023-02-15T07:46:33.723Z,59.90
2023-02-15T07:49:56.777Z,60.80
2023-02-15T07:53:09.403Z,49.20
2023-02-15T07:57:04.388Z,45.80
2023-02-15T07:59:51.479Z,46.40
2023-02-15T08:02:31.283Z,52.60
2023-02-15T08:06:01.083Z,49.70
2023-02-15T08:09:50.291Z,44.70
2023-02-15T08:13:40.492Z,36.30
2023-02-15T08:17:32.443Z,36.90
2023-02-15T08:21:24.513Z,36.40
2023-02-15T08:37:02.683Z,44.30
2023-02-15T08:40:45.624Z,50.80
2023-02-15T08:44:02.523Z,74.00
2023-02-15T08:47:49.744Z,44.50
2023-02-15T08:51:09.728Z,41.80
2023-02-15T08:54:38.520Z,35.30
2023-02-15T08:58:08.974Z,36.10
2023-02-15T09:01:57.054Z,34.20
2023-02-15T09:05:46.168Z,64.60
2023-02-15T09:09:08.056Z,39.40
2023-02-15T09:12:37.410Z,37.80
2023-02-15T09:15:58.065Z,36.40
2023-02-15T09:19:37.869Z,33.50
2023-02-15T09:23:26.410Z,38.20
2023-02-15T09:26:36.436Z,34.70
2023-02-15T09:30:09.346Z,33.20
2023-02-15T09:33:56.826Z,32.40
2023-02-15T09:37:43.123Z,33.60
2023-02-15T09:41:07.091Z,33.50
2023-02-15T09:44:54.343Z,32.40
2023-02-15T09:48:49.172Z,30.60
2023-02-15T09:52:36.699Z,30.40
2023-02-15T10:00:37.393Z,39.50
2023-02-15T10:04:13.975Z,35.60
2023-02-15T10:07:59.960Z,36.20
2023-02-15T10:11:52.956Z,32.90
2023-02-15T10:19:56.709Z,36.70
2023-02-15T10:23:58.326Z,62.90
2023-02-15T10:27:27.371Z,56.90
2023-02-15T10:31:27.461Z,40.70
2023-02-15T10:57:29.225Z,44.80
2023-02-15T11:01:33.778Z,55.30
2023-02-15T11:20:39.585Z,37.20
2023-02-15T11:24:21.562Z,36.40
2023-02-15T11:28:20.097Z,36.40
2023-02-15T11:31:45.420Z,34.20
2023-02-15T11:38:20.267Z,37.20
2023-02-15T11:45:42.919Z,46.80
2023-02-15T12:38:34.590Z,38.70
2023-02-15T12:43:18.426Z,41.20
2023-02-15T12:48:10.313Z,44.10
2023-02-15T12:53:01.255Z,35.00
2023-02-15T13:55:45.506Z,38.60
2023-02-15T14:09:54.274Z,40.40
2023-02-15T14:14:35.389Z,47.10
2023-02-15T14:19:27.674Z,40.50
2023-02-15T14:52:20.302Z,38.80
2023-02-15T14:56:08.929Z,37.90
2023-02-15T15:11:45.013Z,40.40
2023-02-15T15:15:34.118Z,40.30
2023-02-15T15:19:09.262Z,39.20
2023-02-15T15:26:29.132Z,41.00
2023-02-15T15:30:20.883Z,42.00
2023-02-15T15:34:24.891Z,41.80
2023-02-15T15:42:35.632Z,40.10
2023-02-15T15:46:36.921Z,39.90
2023-02-15T15:50:07.286Z,41.60
2023-02-15T15:54:01.017Z,42.00
2023-02-15T16:18:03.156Z,73.40
2023-02-15T16:52:47.873Z,138.60
2023-02-15T16:56:37.920Z,139.20
2023-02-15T17:00:37.833Z,142.60
2023-02-15T17:16:34.465Z,211.10
2023-02-15T17:20:26.371Z,256.50
2023-02-15T17:24:00.151Z,199.30
2023-02-15T17:27:53.472Z,191.50
2023-02-15T17:44:15.170Z,153.50
2023-02-15T17:48:02.967Z,151.30
2023-02-15T17:55:09.717Z,146.10
2023-02-15T17:58:57.665Z,138.70
2023-02-15T18:02:36.828Z,130.30
2023-02-15T18:06:23.048Z,123.90
2023-02-15T18:10:12.307Z,123.20
2023-02-15T18:17:56.306Z,108.00
2023-02-15T18:21:45.425Z,103.30
2023-02-15T18:25:35.754Z,102.30
2023-02-15T18:29:23.569Z,102.50
2023-02-15T18:33:15.252Z,97.20
2023-02-15T18:37:05.427Z,98.30
2023-02-15T18:49:01.412Z,96.30
2023-02-15T18:52:56.649Z,109.60
2023-02-15T18:56:45.950Z,134.10
2023-02-15T19:00:34.818Z,142.90
2023-02-15T19:04:28.476Z,111.30
2023-02-15T19:08:23.270Z,105.50
2023-02-15T19:12:12.529Z,77.30
2023-02-15T19:16:06.220Z,71.10
2023-02-15T19:19:28.870Z,74.40
2023-02-15T19:22:44.025Z,80.70
2023-02-15T19:26:02.321Z,84.60
2023-02-15T19:37:24.020Z,97.60
2023-02-15T20:07:48.162Z,100.50
2023-02-15T20:11:37.576Z,108.50
2023-02-15T20:15:27.036Z,107.40
2023-02-15T20:19:16.843Z,105.00
2023-02-15T20:34:58.843Z,112.80
2023-02-15T20:38:48.410Z,113.70
2023-02-15T20:42:37.654Z,113.60
2023-02-15T20:46:27.224Z,107.50
2023-02-15T20:50:18.422Z,102.70
2023-02-15T20:54:09.064Z,105.60
2023-02-15T21:01:21.153Z,97.60
2023-02-15T21:05:10.343Z,95.90
2023-02-15T21:12:29.618Z,86.00
2023-02-15T21:16:22.179Z,94.30
2023-02-15T21:20:14.777Z,92.40
2023-02-15T21:24:05.897Z,94.20
2023-02-15T21:27:56.424Z,94.60
2023-02-15T22:02:28.690Z,99.10
2023-02-15T22:06:20.413Z,99.60
2023-02-15T22:10:17.860Z,96.10
2023-02-15T22:14:16.260Z,105.20
2023-02-15T22:26:12.324Z,91.00
2023-02-15T22:30:01.372Z,89.50
2023-02-15T22:33:50.385Z,91.40
2023-02-15T22:37:39.371Z,86.50
2023-02-15T22:41:28.714Z,86.40
2023-02-15T22:45:17.809Z,89.50
2023-02-15T23:04:24.498Z,105.10
2023-02-15T23:08:13.802Z,96.10
2023-02-15T23:12:02.990Z,99.30
2023-02-15T23:15:51.928Z,98.10
2023-02-15T23:19:40.878Z,89.80
2023-02-15T23:23:29.832Z,105.80
2023-02-15T23:27:19.433Z,96.00
2023-02-15T23:34:40.724Z,86.30
2023-02-15T23:38:30.529Z,92.60
2023-02-15T23:57:56.506Z,108.40
